Time;durP1;ratioP1;P1;durP2;ratioP2;P2;SDS_P1;SDS_P2;PMS_P1;PMS_P2;Temp;Humidity;BMP_temperature;BMP_pressure;BME280_temperature;BME280_humidity;BME280_pressure;Samples;Min_cycle;Max_cycle;Signal;HPM_P1;HPM_P2
2021/01/22 00:02:20;;;;;;;3.40;2.03;;;10.00;23.90;;;;;;5111782;28;20668;-70
2021/01/22 00:04:46;;;;;;;2.10;2.00;;;10.10;23.80;;;;;;5111504;28;20262;-70
2021/01/22 00:07:12;;;;;;;2.10;2.00;;;10.20;23.70;;;;;;5111565;28;20673;-71
2021/01/22 00:09:38;;;;;;;2.20;2.10;;;10.40;22.90;;;;;;5111703;28;20185;-70
2021/01/22 00:12:04;;;;;;;1.90;1.80;;;10.40;22.90;;;;;;5111593;28;20496;-71
2021/01/22 00:14:29;;;;;;;2.33;2.17;;;10.50;23.20;;;;;;5111512;28;20480;-71
2021/01/22 00:16:55;;;;;;;2.40;2.30;;;10.50;23.10;;;;;;5111611;28;20576;-71
2021/01/22 00:19:20;;;;;;;2.80;2.60;;;10.60;23.30;;;;;;5111132;28;20174;-70
2021/01/22 00:21:46;;;;;;;2.07;1.97;;;10.50;23.30;;;;;;5111516;28;20182;-71
2021/01/22 00:24:12;;;;;;;2.80;2.33;;;10.50;23.60;;;;;;5111629;28;20656;-70
2021/01/22 00:26:37;;;;;;;2.30;2.20;;;10.50;23.20;;;;;;5111520;28;20207;-71
2021/01/22 00:29:03;;;;;;;2.40;2.30;;;10.60;23.00;;;;;;5111220;28;20180;-71
2021/01/22 00:31:28;;;;;;;2.00;1.90;;;10.60;23.00;;;;;;5111293;28;20224;-71
2021/01/22 00:33:54;;;;;;;2.20;2.10;;;10.50;22.90;;;;;;5110999;28;20245;-71
2021/01/22 00:36:19;;;;;;;2.67;2.47;;;10.50;22.90;;;;;;5110727;28;20178;-71
2021/01/22 00:38:45;;;;;;;2.40;2.30;;;10.50;22.90;;;;;;5110929;28;20710;-70
2021/01/22 00:41:10;;;;;;;2.40;2.30;;;10.40;22.90;;;;;;5111104;28;20180;-70
2021/01/22 00:43:36;;;;;;;2.80;2.60;;;10.40;22.90;;;;;;5111057;28;20256;-70
2021/01/22 00:46:01;;;;;;;2.27;2.17;;;10.30;22.80;;;;;;5111122;28;20187;-71
2021/01/22 00:48:27;;;;;;;2.23;2.13;;;10.20;22.90;;;;;;5111466;28;20228;-71
2021/01/22 00:50:52;;;;;;;1.80;1.70;;;10.10;23.20;;;;;;5110874;28;20178;-70
2021/01/22 00:53:18;;;;;;;2.20;2.00;;;10.00;23.60;;;;;;5111204;28;20203;-71
2021/01/22 00:55:43;;;;;;;1.70;1.60;;;9.90;24.60;;;;;;5111131;28;20174;-69
2021/01/22 00:58:09;;;;;;;1.80;1.70;;;9.90;24.70;;;;;;5111412;28;20203;-71
2021/01/22 01:00:35;;;;;;;1.60;1.50;;;9.80;24.90;;;;;;5111098;28;20178;-70
2021/01/22 01:03:00;;;;;;;1.67;1.57;;;9.70;25.30;;;;;;5111241;28;20206;-71
2021/01/22 01:05:26;;;;;;;2.80;1.60;;;9.60;25.30;;;;;;5111245;28;20158;-70
2021/01/22 01:07:52;;;;;;;2.00;1.90;;;9.60;25.20;;;;;;5111220;28;20656;-70
2021/01/22 01:10:17;;;;;;;1.73;1.63;;;9.60;25.80;;;;;;5111211;28;20242;-71
2021/01/22 01:12:43;;;;;;;1.63;1.53;;;9.60;25.40;;;;;;5111406;28;20548;-71
2021/01/22 01:15:09;;;;;;;1.63;1.53;;;9.60;25.40;;;;;;5111106;28;20179;-71
2021/01/22 01:17:35;;;;;;;1.90;1.80;;;9.60;25.30;;;;;;5110884;28;20197;-71
2021/01/22 01:20:02;;;;;;;1.70;1.60;;;9.60;25.50;;;;;;5110848;28;20423;-71
2021/01/22 01:22:27;;;;;;;1.73;1.50;;;9.60;25.60;;;;;;5111396;28;20412;-71
2021/01/22 01:24:53;;;;;;;4.10;1.70;;;9.50;25.80;;;;;;5111366;28;20626;-71
2021/01/22 01:27:18;;;;;;;1.87;1.77;;;9.50;25.90;;;;;;5111265;28;20181;-71
2021/01/22 01:29:44;;;;;;;1.77;1.67;;;9.50;25.90;;;;;;5110949;28;20670;-70
2021/01/22 01:32:09;;;;;;;1.20;1.10;;;9.40;26.00;;;;;;5111006;28;20200;-70
2021/01/22 01:34:35;;;;;;;1.87;1.60;;;9.40;25.60;;;;;;5110919;28;20520;-71
2021/01/22 01:37:00;;;;;;;1.90;1.80;;;9.40;26.00;;;;;;5110900;28;20289;-70
2021/01/22 01:39:26;;;;;;;1.73;1.63;;;9.40;25.80;;;;;;5092569;28;20175;-71
2021/01/22 01:41:51;;;;;;;2.07;1.87;;;9.40;25.60;;;;;;5110994;28;20595;-70
2021/01/22 01:44:17;;;;;;;1.70;1.60;;;9.40;26.10;;;;;;5111020;28;20252;-70
2021/01/22 01:46:43;;;;;;;1.83;1.70;;;9.40;25.20;;;;;;5092853;28;20635;-70
2021/01/22 01:49:08;;;;;;;2.07;1.97;;;9.50;24.90;;;;;;5111878;28;20200;-71
2021/01/22 01:51:34;;;;;;;1.90;1.80;;;9.50;24.20;;;;;;5114691;28;20182;-71
2021/01/22 01:54:00;;;;;;;2.30;2.20;;;9.60;23.90;;;;;;5114701;28;20236;-71
2021/01/22 01:56:26;;;;;;;1.90;1.80;;;9.80;23.20;;;;;;5115294;28;20409;-72
2021/01/22 01:58:53;;;;;;;2.70;2.50;;;9.80;23.40;;;;;;5114354;28;20408;-71
2021/01/22 02:01:19;;;;;;;2.50;2.37;;;9.80;23.60;;;;;;5114462;28;20581;-70
2021/01/22 02:03:45;;;;;;;3.40;2.90;;;9.80;23.40;;;;;;5096042;28;20848;-71
2021/01/22 02:06:10;;;;;;;3.17;2.87;;;9.80;23.20;;;;;;5114222;28;20504;-71
2021/01/22 02:08:38;;;;;;;2.90;2.70;;;9.80;22.20;;;;;;5095974;28;20457;-70
2021/01/22 02:11:08;;;;;;;3.27;2.97;;;10.00;21.40;;;;;;5113952;28;20179;-71
2021/01/22 02:13:34;;;;;;;3.80;3.50;;;10.10;21.10;;;;;;5114105;28;20475;-69
2021/01/22 02:16:00;;;;;;;3.60;3.40;;;10.10;21.10;;;;;;5114146;28;20421;-71
2021/01/22 02:18:26;;;;;;;3.70;3.40;;;10.10;20.90;;;;;;5114158;28;20466;-70
2021/01/22 02:21:11;;;;;;;3.37;3.17;;;10.20;20.50;;;;;;5114223;28;20400;-70
2021/01/22 02:23:42;;;;;;;4.07;3.87;;;10.30;20.50;;;;;;5095745;28;20930;-72
2021/01/22 02:26:19;;;;;;;3.97;3.63;;;10.30;20.40;;;;;;5114124;28;20435;-71
2021/01/22 02:28:47;;;;;;;3.97;3.70;;;10.40;20.40;;;;;;5114095;28;20469;-71
2021/01/22 02:31:15;;;;;;;3.20;3.10;;;10.30;20.60;;;;;;5113961;28;20414;-71
2021/01/22 02:33:43;;;;;;;3.60;3.43;;;10.30;20.70;;;;;;5113986;28;20443;-71
2021/01/22 02:36:11;;;;;;;4.20;4.00;;;10.30;20.20;;;;;;5114315;28;20402;-71
2021/01/22 02:38:38;;;;;;;3.73;3.43;;;10.30;20.30;;;;;;5114298;28;20488;-71
2021/01/22 02:41:04;;;;;;;4.30;4.00;;;10.30;20.10;;;;;;5113937;28;20497;-72
2021/01/22 02:43:31;;;;;;;5.20;3.77;;;10.30;19.90;;;;;;5114035;28;20469;-72
2021/01/22 02:45:57;;;;;;;4.53;4.23;;;10.20;20.40;;;;;;5113943;28;20441;-70
2021/01/22 02:48:23;;;;;;;4.83;4.53;;;10.20;19.70;;;;;;5113742;28;20414;-72
2021/01/22 02:50:49;;;;;;;4.60;4.30;;;10.20;19.70;;;;;;5113715;28;21015;-71
2021/01/22 02:53:14;;;;;;;4.50;4.30;;;10.20;19.80;;;;;;5113505;28;20485;-71
2021/01/22 02:55:40;;;;;;;5.13;4.73;;;10.20;19.20;;;;;;5113703;28;20176;-70
2021/01/22 02:58:16;;;;;;;4.80;4.60;;;10.30;18.70;;;;;;5095258;28;20198;-72
2021/01/22 03:00:47;;;;;;;4.60;4.33;;;10.30;18.50;;;;;;5113053;28;20163;-71
2021/01/22 03:03:39;;;;;;;5.50;5.10;;;10.30;18.50;;;;;;5113176;28;20432;-71
2021/01/22 03:06:07;;;;;;;10.30;5.67;;;10.30;18.60;;;;;;5113421;28;20407;-71
2021/01/22 03:08:35;;;;;;;6.27;5.87;;;10.30;18.50;;;;;;5113191;28;20423;-71
2021/01/22 03:11:02;;;;;;;5.53;5.17;;;10.30;18.60;;;;;;5113100;28;20792;-70
2021/01/22 03:13:27;;;;;;;5.53;5.23;;;10.30;18.60;;;;;;5113199;28;20483;-71
2021/01/22 03:15:54;;;;;;;5.40;5.00;;;10.20;18.50;;;;;;5095051;28;20912;-71
2021/01/22 03:18:20;;;;;;;5.73;5.30;;;10.20;18.50;;;;;;5113193;28;20225;-72
2021/01/22 03:20:47;;;;;;;5.13;4.70;;;10.20;18.50;;;;;;5112990;28;20401;-70
2021/01/22 03:23:18;;;;;;;7.83;5.63;;;10.10;18.90;;;;;;5112437;28;20425;-70
2021/01/22 03:25:44;;;;;;;5.10;4.90;;;10.10;19.20;;;;;;5112613;28;20408;-70
2021/01/22 03:28:10;;;;;;;4.33;4.13;;;10.00;19.50;;;;;;5094192;28;20417;-70
2021/01/22 03:30:37;;;;;;;5.43;4.87;;;9.80;20.70;;;;;;5112300;28;20179;-70
2021/01/22 03:35:29;;;;;;;4.00;3.80;;;9.60;21.60;;;;;;5128109;22;20487;-74
2021/01/22 03:37:55;;;;;;;3.83;3.63;;;9.50;21.80;;;;;;5093919;28;20206;-75
2021/01/22 03:40:21;;;;;;;3.77;3.57;;;9.40;22.20;;;;;;5112074;28;20821;-75
2021/01/22 03:42:47;;;;;;;3.70;3.20;;;9.30;22.40;;;;;;5111995;28;20482;-75
2021/01/22 03:45:14;;;;;;;4.27;3.50;;;9.20;22.80;;;;;;5112144;28;20437;-75
2021/01/22 03:47:40;;;;;;;3.63;3.43;;;9.20;22.80;;;;;;5111947;28;20181;-75
2021/01/22 03:50:06;;;;;;;3.37;3.07;;;9.10;22.80;;;;;;5111877;28;20411;-75
2021/01/22 03:52:32;;;;;;;2.97;2.50;;;9.00;23.00;;;;;;5093853;28;20173;-74
2021/01/22 03:54:58;;;;;;;2.50;2.30;;;8.90;23.60;;;;;;5111894;28;20439;-75
2021/01/22 03:57:23;;;;;;;2.57;2.37;;;8.80;23.70;;;;;;5111910;28;20201;-75
2021/01/22 03:59:49;;;;;;;3.43;2.90;;;8.70;23.80;;;;;;5093510;28;20173;-75
2021/01/22 04:02:14;;;;;;;3.03;2.83;;;8.70;23.70;;;;;;5111788;28;20173;-75
2021/01/22 04:04:40;;;;;;;2.97;2.77;;;8.60;24.30;;;;;;5111782;28;20245;-75
2021/01/22 04:07:05;;;;;;;2.90;2.70;;;8.50;24.20;;;;;;5111644;28;20185;-75
2021/01/22 04:09:31;;;;;;;2.50;2.30;;;8.50;24.60;;;;;;5111629;28;20173;-75
2021/01/22 04:11:57;;;;;;;3.87;2.90;;;8.40;24.60;;;;;;5111531;28;20176;-75
2021/01/22 04:14:23;;;;;;;2.30;2.03;;;8.30;24.70;;;;;;5111669;28;20229;-74
2021/01/22 04:16:49;;;;;;;2.57;2.37;;;8.30;24.90;;;;;;5111557;28;20915;-75
2021/01/22 04:19:15;;;;;;;3.27;2.70;;;8.20;25.00;;;;;;5093147;28;20498;-74
2021/01/22 04:21:40;;;;;;;2.27;2.07;;;8.10;25.20;;;;;;5112143;28;20181;-74
2021/01/22 04:24:06;;;;;;;1.67;1.57;;;8.10;25.00;;;;;;5111794;28;20542;-75
2021/01/22 04:26:32;;;;;;;3.30;2.20;;;8.10;25.30;;;;;;5093236;28;20255;-74
2021/01/22 04:28:57;;;;;;;1.50;1.40;;;8.20;25.20;;;;;;5111357;28;21091;-74
2021/01/22 04:31:24;;;;;;;1.60;1.33;;;8.20;25.30;;;;;;5111334;28;20179;-74
2021/01/22 04:33:50;;;;;;;1.77;1.33;;;8.30;25.30;;;;;;5092771;28;20204;-74
2021/01/22 04:36:16;;;;;;;1.70;1.57;;;8.30;25.30;;;;;;5093104;28;20406;-74
2021/01/22 04:38:41;;;;;;;2.67;1.80;;;8.30;25.30;;;;;;5092995;28;20489;-74
2021/01/22 04:41:07;;;;;;;2.50;2.10;;;8.30;25.40;;;;;;5111186;28;20469;-75
2021/01/22 04:43:32;;;;;;;2.13;1.60;;;8.40;25.30;;;;;;5111153;28;20189;-74
2021/01/22 04:46:01;;;;;;;1.70;1.40;;;8.40;25.40;;;;;;5092836;28;20237;-74
2021/01/22 04:48:28;;;;;;;1.60;1.50;;;8.50;25.20;;;;;;5111204;28;20490;-75
2021/01/22 04:50:58;;;;;;;3.23;1.70;;;8.60;25.10;;;;;;5110909;28;20418;-75
2021/01/22 04:53:27;;;;;;;2.10;1.90;;;8.60;25.00;;;;;;5111018;28;20426;-74
2021/01/22 04:55:55;;;;;;;2.17;1.67;;;8.60;25.10;;;;;;5111177;28;20403;-74
2021/01/22 04:58:23;;;;;;;2.77;1.70;;;8.60;25.10;;;;;;5111010;28;20450;-74
2021/01/22 05:00:49;;;;;;;2.93;1.73;;;8.60;25.00;;;;;;5111183;28;20707;-75
2021/01/22 05:03:17;;;;;;;3.53;1.60;;;8.70;25.30;;;;;;5092807;28;20422;-74
2021/01/22 05:05:42;;;;;;;3.43;1.47;;;8.70;25.30;;;;;;5111186;28;20441;-74
2021/01/22 05:08:08;;;;;;;1.87;1.60;;;8.70;25.30;;;;;;5110918;28;20938;-75
2021/01/22 05:10:33;;;;;;;1.50;1.37;;;8.70;25.20;;;;;;5110933;28;20537;-74
2021/01/22 05:12:59;;;;;;;1.73;1.50;;;8.70;25.30;;;;;;5110890;28;20174;-75
2021/01/22 05:15:25;;;;;;;1.90;1.30;;;8.70;25.20;;;;;;5110873;28;20247;-75
2021/01/22 05:18:01;;;;;;;2.67;2.10;;;8.60;25.30;;;;;;5110809;28;20257;-75
2021/01/22 05:20:38;;;;;;;2.20;1.40;;;8.60;25.30;;;;;;5092596;28;20419;-74
2021/01/22 05:23:09;;;;;;;2.37;2.00;;;8.60;25.40;;;;;;5111860;28;20410;-75
2021/01/22 05:26:02;;;;;;;1.50;1.40;;;8.60;25.30;;;;;;5114916;28;20950;-74
2021/01/22 05:28:34;;;;;;;2.40;1.57;;;8.70;25.30;;;;;;5096538;28;20418;-75
2021/01/22 05:31:00;;;;;;;1.50;1.40;;;8.70;25.30;;;;;;5114571;28;20470;-75
2021/01/22 05:33:26;;;;;;;1.80;1.70;;;8.60;25.30;;;;;;5114296;28;20450;-75
2021/01/22 05:35:52;;;;;;;1.67;1.27;;;8.60;25.40;;;;;;5096411;28;20429;-75
2021/01/22 05:38:18;;;;;;;1.83;1.73;;;8.50;25.40;;;;;;5114400;28;21038;-75
2021/01/22 05:40:50;;;;;;;1.80;1.43;;;8.50;25.60;;;;;;5096126;28;20421;-75
2021/01/22 05:43:16;;;;;;;1.63;1.50;;;8.50;25.70;;;;;;5114543;28;20259;-75
2021/01/22 05:45:46;;;;;;;1.40;1.30;;;8.50;25.80;;;;;;5114467;28;20837;-75
2021/01/22 05:48:26;;;;;;;1.60;1.20;;;8.50;25.80;;;;;;5096276;28;20426;-74
2021/01/22 05:50:53;;;;;;;1.40;1.30;;;8.50;25.80;;;;;;5096072;28;20825;-74
2021/01/22 05:53:20;;;;;;;1.73;1.40;;;8.60;25.60;;;;;;5114356;28;20432;-74
2021/01/22 05:56:03;;;;;;;6.20;1.33;;;8.60;26.10;;;;;;5114219;28;20441;-74
2021/01/22 05:58:29;;;;;;;1.43;1.30;;;8.60;25.60;;;;;;5096134;28;20555;-75
2021/01/22 06:01:05;;;;;;;1.53;1.20;;;8.60;25.70;;;;;;5114172;28;20764;-75
2021/01/22 06:03:30;;;;;;;1.60;1.50;;;8.60;25.70;;;;;;5114118;28;20426;-74
2021/01/22 06:05:56;;;;;;;1.67;1.50;;;8.60;25.40;;;;;;5115047;28;20941;-75
2021/01/22 06:08:22;;;;;;;3.20;1.90;;;8.60;25.50;;;;;;5114846;28;20185;-75
2021/01/22 06:10:49;;;;;;;1.70;1.50;;;8.70;25.80;;;;;;5115297;28;21040;-74
2021/01/22 06:13:21;;;;;;;2.20;1.53;;;8.70;25.30;;;;;;5096646;28;20276;-74
2021/01/22 06:15:47;;;;;;;1.70;1.60;;;8.70;25.30;;;;;;5114921;28;20410;-75
2021/01/22 06:18:16;;;;;;;3.00;1.67;;;8.70;25.40;;;;;;5114918;28;20461;-75
2021/01/22 06:20:43;;;;;;;1.60;1.50;;;8.60;25.20;;;;;;5114841;28;20406;-75
2021/01/22 06:23:13;;;;;;;1.93;1.83;;;8.70;25.20;;;;;;5114701;28;20411;-75
2021/01/22 06:25:40;;;;;;;1.60;1.50;;;8.70;25.50;;;;;;5114358;28;20418;-76
2021/01/22 06:28:07;;;;;;;3.77;1.57;;;8.70;25.50;;;;;;5095971;28;20438;-74
2021/01/22 06:30:34;;;;;;;1.30;1.20;;;8.70;25.60;;;;;;5113993;28;20502;-75
2021/01/22 06:33:01;;;;;;;4.50;1.93;;;8.60;25.60;;;;;;5114083;28;20498;-75
2021/01/22 06:35:28;;;;;;;1.90;1.47;;;8.60;25.70;;;;;;5113262;28;20516;-75
2021/01/22 06:37:55;;;;;;;2.50;1.60;;;8.60;25.70;;;;;;5114455;28;20480;-74
2021/01/22 06:40:21;;;;;;;1.80;1.70;;;8.60;25.50;;;;;;5113943;28;20435;-75
2021/01/22 06:42:47;;;;;;;1.50;1.40;;;8.50;25.50;;;;;;5114219;28;20402;-75
2021/01/22 06:45:13;;;;;;;1.80;1.63;;;8.60;25.50;;;;;;5114935;28;20214;-74
2021/01/22 06:47:39;;;;;;;1.43;1.33;;;8.60;25.20;;;;;;5114942;28;20498;-74
2021/01/22 06:50:21;;;;;;;2.23;1.90;;;8.60;25.10;;;;;;5114215;28;20971;-75
2021/01/22 06:53:09;;;;;;;5.60;2.10;;;8.60;25.10;;;;;;5096778;28;20184;-75
2021/01/22 06:55:58;;;;;;;3.20;1.80;;;8.60;25.20;;;;;;5115049;28;20458;-74
2021/01/22 06:58:27;;;;;;;1.97;1.77;;;8.60;25.20;;;;;;5105574;28;20565;-75
2021/01/22 07:00:54;;;;;;;2.23;2.00;;;8.60;25.10;;;;;;5114669;28;20407;-75
2021/01/22 07:03:37;;;;;;;1.57;1.47;;;8.60;24.80;;;;;;5114277;28;20564;-76
2021/01/22 07:06:07;;;;;;;4.40;1.43;;;8.70;24.70;;;;;;5113829;28;20411;-74
2021/01/22 07:08:59;;;;;;;5.50;2.50;;;8.70;24.40;;;;;;5095717;28;20429;-75
2021/01/22 07:11:25;;;;;;;2.23;2.13;;;8.70;24.40;;;;;;5111165;28;20430;-75
2021/01/22 07:13:52;;;;;;;2.13;1.77;;;8.80;24.00;;;;;;5113283;28;20430;-74
2021/01/22 07:16:17;;;;;;;2.50;2.30;;;8.80;23.80;;;;;;5095214;28;20185;-75
2021/01/22 07:18:54;;;;;;;2.57;2.40;;;8.90;23.80;;;;;;5113351;28;20524;-75
2021/01/22 07:21:22;;;;;;;8.83;2.40;;;8.90;23.10;;;;;;5095643;28;20267;-75
2021/01/22 07:23:52;;;;;;;2.93;2.73;;;8.90;23.00;;;;;;5114103;28;20492;-74
2021/01/22 07:26:18;;;;;;;5.60;2.20;;;9.00;22.80;;;;;;5113272;28;20415;-74
2021/01/22 07:28:51;;;;;;;2.63;2.33;;;9.10;22.80;;;;;;5113458;28;20737;-74
2021/01/22 07:31:49;;;;;;;2.70;2.30;;;9.10;22.90;;;;;;5113524;28;20515;-75
2021/01/22 07:34:43;;;;;;;3.17;2.50;;;9.10;22.80;;;;;;5113270;28;20456;-74
2021/01/22 07:37:11;;;;;;;2.17;2.00;;;9.10;23.20;;;;;;5114027;28;20454;-75
2021/01/22 07:39:37;;;;;;;3.00;1.90;;;9.10;23.50;;;;;;5095364;28;20993;-75
2021/01/22 07:42:14;;;;;;;2.50;2.30;;;9.10;23.60;;;;;;5113661;28;20443;-75
2021/01/22 07:44:41;;;;;;;2.43;2.23;;;9.20;23.40;;;;;;5113465;28;20428;-75
2021/01/22 07:47:08;;;;;;;2.50;2.17;;;9.20;23.50;;;;;;5112288;28;20886;-75
2021/01/22 07:49:33;;;;;;;2.50;2.30;;;9.20;23.40;;;;;;5113435;28;20417;-77
2021/01/22 07:52:03;;;;;;;9.30;2.30;;;9.20;23.10;;;;;;5095313;28;20483;-75
2021/01/22 07:54:43;;;;;;;2.57;2.37;;;9.20;23.30;;;;;;5113336;28;20678;-75
2021/01/22 07:57:16;;;;;;;2.50;2.30;;;9.30;22.90;;;;;;5094678;28;20514;-74
2021/01/22 07:59:43;;;;;;;2.90;2.70;;;9.40;22.90;;;;;;5094863;28;20449;-75
2021/01/22 08:02:14;;;;;;;2.40;2.30;;;9.50;23.40;;;;;;5095095;28;20435;-75
2021/01/22 08:04:39;;;;;;;3.23;2.93;;;9.50;23.00;;;;;;5113236;28;20444;-75
2021/01/22 08:07:05;;;;;;;3.60;3.30;;;9.60;22.70;;;;;;5095003;28;20424;-74
2021/01/22 08:09:30;;;;;;;3.17;2.97;;;9.60;22.00;;;;;;5095063;28;20193;-75
2021/01/22 08:12:10;;;;;;;2.87;2.67;;;9.70;22.00;;;;;;5113630;28;20231;-75
2021/01/22 08:14:36;;;;;;;3.60;3.30;;;9.90;21.60;;;;;;5095555;28;20202;-75
2021/01/22 08:17:06;;;;;;;3.33;3.13;;;10.00;20.60;;;;;;5113237;28;20457;-75
2021/01/22 08:19:33;;;;;;;3.73;3.43;;;10.00;20.80;;;;;;5113709;28;20913;-75
2021/01/22 08:22:00;;;;;;;3.90;3.70;;;10.10;20.70;;;;;;5095670;28;20987;-75
2021/01/22 08:24:26;;;;;;;4.47;3.90;;;10.10;20.60;;;;;;5095425;28;20440;-75
2021/01/22 08:27:03;;;;;;;4.13;3.70;;;10.20;20.50;;;;;;5095768;28;20452;-75
2021/01/22 08:29:30;;;;;;;4.07;3.87;;;10.30;20.00;;;;;;5113522;28;20203;-75
2021/01/22 08:31:57;;;;;;;4.03;3.83;;;10.50;19.60;;;;;;5096265;28;20439;-75
2021/01/22 08:34:23;;;;;;;8.20;4.20;;;10.50;19.50;;;;;;5112671;28;20872;-75
2021/01/22 08:36:56;;;;;;;4.40;4.20;;;10.50;19.20;;;;;;5113717;28;20420;-74
2021/01/22 08:39:21;;;;;;;4.60;4.40;;;10.60;18.80;;;;;;5095315;28;20512;-74
2021/01/22 08:41:47;;;;;;;4.13;3.93;;;10.60;19.10;;;;;;5113101;28;20948;-75
2021/01/22 08:44:12;;;;;;;4.53;4.33;;;10.70;18.90;;;;;;5094650;28;20200;-75
2021/01/22 08:46:51;;;;;;;5.33;4.80;;;10.80;18.90;;;;;;5115031;28;20179;-74
2021/01/22 08:49:17;;;;;;;4.63;4.43;;;10.80;18.90;;;;;;5104047;28;20187;-76
2021/01/22 08:51:43;;;;;;;4.23;3.90;;;10.90;19.00;;;;;;5077044;28;20761;-76
2021/01/22 08:54:09;;;;;;;5.33;4.87;;;10.90;19.00;;;;;;5076622;28;20442;-77
2021/01/22 08:56:35;;;;;;;4.63;4.33;;;10.90;18.90;;;;;;5096321;28;20782;-76
2021/01/22 08:59:07;;;;;;;5.27;4.77;;;11.00;18.80;;;;;;5099246;28;20181;-76
2021/01/22 09:01:58;;;;;;;4.90;4.70;;;11.00;18.50;;;;;;5100850;28;20400;-77
2021/01/22 09:04:33;;;;;;;5.90;5.60;;;11.00;18.50;;;;;;5100502;28;20445;-76
2021/01/22 09:07:00;;;;;;;6.87;5.30;;;11.10;19.00;;;;;;5100649;28;20468;-77
2021/01/22 09:09:43;;;;;;;8.17;5.60;;;11.10;18.40;;;;;;5100615;28;20418;-76
2021/01/22 09:12:37;;;;;;;5.50;5.10;;;11.10;18.80;;;;;;5082650;28;20808;-76
2021/01/22 09:15:05;;;;;;;8.70;5.40;;;11.20;18.40;;;;;;5077200;28;20520;-76
2021/01/22 09:17:49;;;;;;;6.93;5.77;;;11.30;18.50;;;;;;5099009;28;20459;-76
2021/01/22 09:20:19;;;;;;;5.70;5.27;;;11.40;18.40;;;;;;5078606;28;20423;-77
2021/01/22 09:22:47;;;;;;;4.83;4.53;;;11.40;18.30;;;;;;5097008;28;20813;-77
2021/01/22 09:25:15;;;;;;;5.57;5.27;;;11.70;17.90;;;;;;5098390;28;20808;-76
2021/01/22 09:27:42;;;;;;;5.70;5.17;;;11.80;17.60;;;;;;5080652;28;20492;-76
2021/01/22 09:30:13;;;;;;;5.63;5.33;;;12.00;17.30;;;;;;5096535;28;20422;-76
2021/01/22 09:32:43;;;;;;;5.73;5.43;;;12.10;16.90;;;;;;5098214;28;20416;-75
2021/01/22 09:35:09;;;;;;;5.80;5.50;;;12.20;16.70;;;;;;5109493;22;20521;-75
2021/01/22 09:37:35;;;;;;;6.67;6.37;;;12.30;16.90;;;;;;5106823;28;20465;-75
2021/01/22 09:40:01;;;;;;;6.40;6.10;;;12.50;16.40;;;;;;5125428;28;20407;-73
2021/01/22 09:42:26;;;;;;;10.43;6.47;;;12.60;15.80;;;;;;5108509;28;20277;-73
2021/01/22 09:44:52;;;;;;;7.13;6.73;;;12.70;15.90;;;;;;5126382;28;20833;-74
2021/01/22 09:47:18;;;;;;;6.27;5.97;;;12.70;15.90;;;;;;5127505;28;20180;-73
2021/01/22 09:49:43;;;;;;;6.17;5.87;;;12.80;16.00;;;;;;5126945;28;20700;-75
2021/01/22 09:52:09;;;;;;;5.87;5.67;;;13.00;16.10;;;;;;5125430;28;20169;-73
2021/01/22 09:54:34;;;;;;;5.87;5.67;;;13.10;16.00;;;;;;5125372;28;20193;-75
2021/01/22 09:57:00;;;;;;;6.10;5.90;;;13.40;15.80;;;;;;5106600;28;20204;-73
2021/01/22 09:59:25;;;;;;;6.10;5.90;;;13.50;15.40;;;;;;5108172;28;20176;-75
2021/01/22 10:01:51;;;;;;;6.03;5.80;;;13.50;15.30;;;;;;5125317;28;20174;-74
2021/01/22 10:04:17;;;;;;;6.17;5.77;;;13.30;16.30;;;;;;5123961;28;20266;-74
2021/01/22 10:06:42;;;;;;;6.00;5.80;;;13.20;16.30;;;;;;5124634;28;20202;-75
2021/01/22 10:09:10;;;;;;;6.20;6.00;;;13.10;16.20;;;;;;5123242;28;20264;-73
2021/01/22 10:11:37;;;;;;;6.33;6.03;;;13.10;16.20;;;;;;5128903;28;20173;-70
2021/01/22 10:14:03;;;;;;;5.87;5.67;;;13.00;16.10;;;;;;5138102;28;20440;-75
2021/01/22 10:16:28;;;;;;;6.03;5.73;;;13.10;16.20;;;;;;5127135;28;20402;-75
2021/01/22 10:18:56;;;;;;;5.87;5.67;;;13.10;16.20;;;;;;5126921;28;20205;-75
2021/01/22 10:21:22;;;;;;;6.23;6.03;;;13.10;15.80;;;;;;5107218;28;20226;-73
2021/01/22 10:23:52;;;;;;;7.63;7.23;;;13.10;16.20;;;;;;5126707;28;20446;-74
2021/01/22 10:26:19;;;;;;;7.70;7.30;;;13.10;16.20;;;;;;5129443;28;20176;-74
2021/01/22 10:28:45;;;;;;;6.90;6.60;;;13.20;16.30;;;;;;5124971;28;20419;-75
2021/01/22 10:31:11;;;;;;;7.00;6.70;;;13.40;16.10;;;;;;5125780;28;20415;-73
2021/01/22 10:33:37;;;;;;;7.20;6.90;;;13.50;14.90;;;;;;5126319;28;20410;-74
2021/01/22 10:36:04;;;;;;;6.60;6.37;;;13.50;14.40;;;;;;5125905;28;20177;-74
2021/01/22 10:38:30;;;;;;;7.27;6.97;;;13.60;14.40;;;;;;5125580;28;20451;-73
2021/01/22 10:40:56;;;;;;;7.27;6.97;;;13.60;14.50;;;;;;5123586;28;20402;-73
2021/01/22 10:43:23;;;;;;;7.07;6.77;;;13.60;13.90;;;;;;5125223;28;20412;-73
2021/01/22 10:45:49;;;;;;;7.03;6.73;;;13.60;14.10;;;;;;5098901;28;20180;-73
2021/01/22 10:48:15;;;;;;;6.90;6.60;;;13.70;14.10;;;;;;5103198;28;20448;-72
2021/01/22 10:50:40;;;;;;;7.37;7.07;;;13.80;13.80;;;;;;5100820;28;20419;-72
2021/01/22 10:53:06;;;;;;;7.30;7.10;;;13.70;13.30;;;;;;5101520;28;20178;-72
2021/01/22 10:55:31;;;;;;;7.80;7.40;;;13.80;13.20;;;;;;5101270;28;20253;-74
2021/01/22 10:57:57;;;;;;;7.13;6.73;;;13.80;12.90;;;;;;5102870;28;20212;-75
2021/01/22 11:00:25;;;;;;;7.30;7.07;;;13.80;13.00;;;;;;5083345;28;20183;-74
2021/01/22 11:02:51;;;;;;;6.80;6.60;;;13.80;12.50;;;;;;5101764;28;20174;-74
2021/01/22 11:05:19;;;;;;;7.07;6.77;;;13.90;12.30;;;;;;5100477;28;20434;-74
2021/01/22 11:07:45;;;;;;;7.80;7.50;;;14.00;12.40;;;;;;5090487;28;20270;-74
2021/01/22 11:10:11;;;;;;;8.20;7.77;;;14.10;12.50;;;;;;5107803;28;20421;-74
2021/01/22 11:12:37;;;;;;;8.20;7.50;;;14.20;12.60;;;;;;5107805;28;20190;-74
2021/01/22 11:15:06;;;;;;;7.73;7.43;;;14.20;12.60;;;;;;5107370;28;20429;-73
2021/01/22 11:17:32;;;;;;;7.50;7.20;;;14.20;12.60;;;;;;5111313;28;20197;-72
2021/01/22 11:20:02;;;;;;;7.83;7.53;;;14.30;12.60;;;;;;5108269;28;20421;-73
2021/01/22 11:22:27;;;;;;;8.93;8.43;;;14.20;12.60;;;;;;5106339;28;20171;-74
2021/01/22 11:24:53;;;;;;;7.87;7.57;;;14.30;12.70;;;;;;5087392;28;20453;-73
2021/01/22 11:27:18;;;;;;;8.20;7.90;;;14.30;12.60;;;;;;5092860;28;20572;-72
2021/01/22 11:29:44;;;;;;;8.30;8.00;;;14.30;11.70;;;;;;5100761;28;20238;-73
2021/01/22 11:32:10;;;;;;;8.43;8.13;;;14.40;12.40;;;;;;5078935;28;20585;-72
2021/01/22 11:34:35;;;;;;;8.30;8.00;;;14.40;11.20;;;;;;5095880;28;20220;-72
2021/01/22 11:37:01;;;;;;;8.73;8.43;;;14.40;11.30;;;;;;5092204;28;20253;-74
2021/01/22 11:39:26;;;;;;;9.13;8.83;;;14.50;10.40;;;;;;5079660;28;20215;-71
2021/01/22 11:41:53;;;;;;;8.93;8.53;;;14.60;10.50;;;;;;5098429;28;20194;-72
2021/01/22 11:44:19;;;;;;;9.60;9.30;;;14.70;11.50;;;;;;5099399;28;20254;-73
2021/01/22 11:46:45;;;;;;;9.20;8.90;;;14.90;10.40;;;;;;5085332;28;20483;-73
2021/01/22 11:49:10;;;;;;;9.70;9.30;;;14.90;9.90;;;;;;5100039;28;20532;-72
2021/01/22 11:51:36;;;;;;;9.40;9.10;;;15.00;9.40;;;;;;5123099;27;20183;-71
2021/01/22 11:54:04;;;;;;;8.70;8.40;;;14.90;9.50;;;;;;5117743;27;20222;-73
2021/01/22 11:56:30;;;;;;;9.57;9.17;;;15.00;9.50;;;;;;5111707;28;20770;-72
2021/01/22 11:58:56;;;;;;;9.30;9.00;;;15.00;9.40;;;;;;5092657;28;20492;-70
2021/01/22 12:01:21;;;;;;;10.00;9.60;;;15.00;9.90;;;;;;5122833;28;20422;-71
2021/01/22 12:03:47;;;;;;;9.63;9.23;;;15.00;10.10;;;;;;5106129;28;20215;-72
2021/01/22 12:06:12;;;;;;;9.60;9.30;;;15.00;10.00;;;;;;5126484;28;20169;-73
2021/01/22 12:08:38;;;;;;;9.60;9.27;;;14.90;10.00;;;;;;5125664;28;20188;-70
2021/01/22 12:11:03;;;;;;;9.73;9.33;;;14.80;9.90;;;;;;5125418;28;20299;-73
2021/01/22 12:13:29;;;;;;;8.93;8.63;;;14.70;10.10;;;;;;5126985;28;20643;-73
2021/01/22 12:18:52;;;;;;;10.37;9.97;;;14.70;10.50;;;;;;5121032;28;20216;-72
2021/01/22 12:21:33;;;;;;;10.37;9.77;;;14.70;10.50;;;;;;5122661;28;20419;-75
2021/01/22 12:23:58;;;;;;;9.53;9.23;;;14.80;10.10;;;;;;5099565;28;20782;-73
2021/01/22 12:26:24;;;;;;;9.87;9.57;;;14.90;10.00;;;;;;5118363;28;20412;-74
2021/01/22 12:28:50;;;;;;;9.77;9.47;;;14.80;9.80;;;;;;5117329;28;20187;-73
2021/01/22 12:31:16;;;;;;;9.77;9.47;;;14.80;9.60;;;;;;5115749;28;20254;-76
2021/01/22 12:33:42;;;;;;;9.47;9.17;;;14.80;9.20;;;;;;5096141;28;20223;-74
2021/01/22 12:36:08;;;;;;;9.93;9.40;;;14.70;9.30;;;;;;5115785;28;20424;-74
2021/01/22 12:38:34;;;;;;;10.40;9.97;;;14.50;9.50;;;;;;5115278;28;20453;-74
2021/01/22 12:41:00;;;;;;;10.70;10.30;;;14.40;9.60;;;;;;5114149;28;20467;-74
2021/01/22 12:43:26;;;;;;;10.00;9.60;;;14.40;9.40;;;;;;5095273;28;20777;-74
2021/01/22 12:45:51;;;;;;;10.40;9.97;;;14.30;9.70;;;;;;5094579;28;20433;-75
2021/01/22 12:48:17;;;;;;;10.27;9.80;;;14.20;9.60;;;;;;5094158;28;20188;-75
2021/01/22 12:50:44;;;;;;;10.23;9.93;;;14.00;9.30;;;;;;5112491;28;20240;-74
2021/01/22 12:53:09;;;;;;;10.63;10.23;;;13.90;9.70;;;;;;5112349;28;20176;-75
2021/01/22 12:55:35;;;;;;;10.53;10.13;;;13.90;10.30;;;;;;5111877;28;21352;-73
2021/01/22 12:58:00;;;;;;;10.40;9.47;;;14.00;10.00;;;;;;5112178;28;20657;-74
2021/01/22 13:00:26;;;;;;;10.60;10.20;;;14.10;10.20;;;;;;5093441;28;20180;-74